CGH weather

Congonhas Airport
São Paulo, São Paulo, Brazil

Public forecast

Using degrees Celsius for public forecast. Weather courtesy of forecast.io.

METAR (pilot weather report)

Retrieved 2019/03/23 18:00 UTC (11 minutes ago):

SBSP 231800Z 33005KT 270V030 9999 FEW047 28/14 Q1017

TAF (pilot weather forecast)

Retrieved 2019/03/23 12:33 UTC (6 hours ago):

TAF SBSP 231012Z 2312/2412 06005KT 9999 FEW011TX29/2317Z TN19/2408Z BECMG 2313/2315 22007KT SCT035 PROB40 2316/2321 17010KT 6000 SHRA BKN030 BECMG 2322/2324 15005KT CAVOK BECMG 2401/2403 05005KT PROB30 2408/2411 5000 BR BKN008 RMK PGN